createdAt,value
2022-08-05T00:00:50.527Z,88.93
2022-08-05T00:01:50.027Z,88.63
2022-08-05T00:02:51.669Z,88.73
2022-08-05T00:03:49.980Z,89.03
2022-08-05T00:04:55.075Z,89.18
2022-08-05T00:06:04.601Z,89.18
2022-08-05T00:06:51.713Z,89.59
2022-08-05T00:08:00.094Z,89.49
2022-08-05T00:08:50.909Z,89.79
2022-08-05T00:09:49.897Z,88.99
2022-08-05T00:10:49.873Z,88.99
2022-08-05T00:11:56.125Z,88.99
2022-08-05T00:12:56.404Z,88.79
2022-08-05T00:13:53.261Z,88.89
2022-08-05T00:14:51.874Z,88.48
2022-08-05T00:15:56.349Z,87.93
2022-08-05T00:16:52.995Z,88.89
2022-08-05T00:17:49.798Z,88.48
2022-08-05T00:18:49.799Z,88.48
2022-08-05T00:20:02.217Z,88.59
2022-08-05T00:20:50.805Z,88.68
2022-08-05T00:21:49.759Z,88.59
2022-08-05T00:22:57.466Z,88.79
2022-08-05T00:23:53.759Z,88.83
2022-08-05T00:24:55.030Z,89.63
2022-08-05T00:25:49.705Z,89.43
2022-08-05T00:26:51.675Z,89.23
2022-08-05T00:27:49.695Z,89.27
2022-08-05T00:28:49.680Z,89.78
2022-08-05T00:29:49.683Z,89.47
2022-08-05T00:30:52.151Z,90.37
2022-08-05T00:32:10.632Z,89.87
2022-08-05T00:32:50.625Z,89.58
2022-08-05T00:34:55.263Z,90.12
2022-08-05T00:35:04.036Z,89.98
2022-08-05T00:36:16.109Z,90.52
2022-08-05T00:37:11.168Z,89.87
2022-08-05T00:37:52.805Z,90.17
2022-08-05T00:38:49.562Z,90.12
2022-08-05T00:39:57.868Z,90.32
2022-08-05T00:40:53.150Z,90.42
2022-08-05T00:41:55.628Z,90.32
2022-08-05T00:42:50.529Z,89.82
2022-08-05T00:43:50.009Z,90.12
2022-08-05T00:44:49.529Z,90.42
2022-08-05T00:45:49.488Z,90.12
2022-08-05T00:46:53.992Z,90.16
2022-08-05T00:47:56.434Z,89.96
2022-08-05T00:48:50.380Z,90.06
2022-08-05T00:49:51.747Z,90.06
2022-08-05T00:50:49.427Z,90.36
2022-08-05T00:51:50.459Z,90.77
2022-08-05T00:52:49.412Z,90.36
2022-08-05T00:54:02.601Z,90.61
2022-08-05T00:54:50.400Z,90.97
2022-08-05T00:55:49.389Z,90.46
2022-08-05T00:56:51.407Z,90.56
2022-08-05T00:57:58.356Z,90.11
2022-08-05T00:58:50.339Z,90.20
2022-08-05T00:59:49.339Z,90.41
2022-08-05T01:00:50.255Z,90.41
2022-08-05T01:01:49.451Z,90.20
2022-08-05T01:02:50.146Z,90.81
2022-08-05T01:03:49.931Z,91.21
2022-08-05T01:04:50.361Z,90.85
2022-08-05T01:05:49.269Z,90.81
2022-08-05T01:06:49.282Z,90.61
2022-08-05T01:08:30.646Z,89.80
2022-08-05T01:08:50.228Z,89.70
2022-08-05T01:09:55.552Z,89.95
2022-08-05T01:10:52.420Z,89.44
2022-08-05T01:11:49.205Z,89.64
2022-08-05T01:13:12.808Z,89.84
2022-08-05T01:13:59.174Z,90.25
2022-08-05T01:14:50.176Z,90.25
2022-08-05T01:15:49.150Z,89.90
2022-08-05T01:16:49.160Z,89.70
2022-08-05T01:17:53.776Z,89.70
2022-08-05T01:18:56.149Z,89.95
2022-08-05T01:20:00.962Z,89.95
2022-08-05T01:20:50.096Z,90.00
2022-08-05T01:21:50.655Z,89.64
2022-08-05T01:22:49.081Z,89.75
2022-08-05T01:23:52.999Z,89.64
2022-08-05T01:24:49.050Z,89.95
2022-08-05T01:25:53.233Z,89.95
2022-08-05T01:26:49.104Z,90.05
2022-08-05T01:27:55.672Z,89.75
2022-08-05T01:28:50.034Z,89.95
2022-08-05T01:29:48.999Z,89.64
2022-08-05T01:30:50.652Z,89.84
2022-08-05T01:31:49.988Z,89.34
2022-08-05T01:32:48.981Z,89.54
2022-08-05T01:33:53.699Z,89.54
2022-08-05T01:34:49.947Z,89.54
2022-08-05T01:35:51.111Z,89.75
2022-08-05T01:36:48.924Z,90.05
2022-08-05T01:37:48.920Z,89.95
2022-08-05T01:38:49.915Z,89.64
2022-08-05T01:39:48.958Z,89.95
2022-08-05T01:40:48.886Z,89.89
2022-08-05T01:41:48.865Z,89.44
2022-08-05T01:42:48.878Z,89.39
2022-08-05T01:43:48.942Z,89.48
2022-08-05T01:44:54.149Z,90.09
2022-08-05T01:45:56.308Z,90.09
2022-08-05T01:46:49.813Z,90.45
2022-08-05T01:47:48.812Z,90.19
2022-08-05T01:48:50.051Z,89.89
2022-08-05T01:50:02.159Z,89.28
2022-08-05T01:50:51.340Z,89.18
2022-08-05T01:51:51.763Z,88.88
2022-08-05T01:52:49.646Z,89.39
2022-08-05T01:53:58.004Z,89.28
2022-08-05T01:54:52.714Z,89.18
2022-08-05T01:55:48.704Z,89.08
2022-08-05T01:58:11.651Z,89.48
2022-08-05T01:58:12.660Z,89.59
2022-08-05T01:58:50.137Z,89.28
2022-08-05T01:59:48.689Z,89.28
2022-08-05T02:00:48.654Z,89.48
2022-08-05T02:01:48.678Z,90.09
2022-08-05T02:02:54.415Z,89.69
2022-08-05T02:03:49.625Z,89.73
2022-08-05T02:04:49.555Z,88.78
2022-08-05T02:05:48.600Z,89.83
2022-08-05T02:06:48.588Z,90.33
2022-08-05T02:07:59.903Z,90.49
2022-08-05T02:08:58.576Z,90.29
2022-08-05T02:09:49.592Z,90.44
2022-08-05T02:10:48.547Z,90.33
2022-08-05T02:11:52.302Z,90.94
2022-08-05T02:12:51.015Z,90.13
2022-08-05T02:13:53.413Z,90.64
2022-08-05T02:14:48.499Z,91.44
2022-08-05T02:15:48.494Z,91.04
2022-08-05T02:16:53.144Z,90.99
2022-08-05T02:18:32.992Z,91.44
2022-08-05T02:18:49.456Z,91.14
2022-08-05T02:19:48.441Z,91.39
2022-08-05T02:20:48.450Z,90.99
2022-08-05T02:21:49.239Z,90.99
2022-08-05T02:22:48.423Z,90.89
2022-08-05T02:23:48.604Z,90.79
2022-08-05T02:24:51.452Z,91.14
2022-08-05T02:25:49.025Z,91.24
2022-08-05T02:26:54.002Z,91.09
2022-08-05T02:27:57.943Z,90.33
2022-08-05T02:28:48.350Z,90.94
2022-08-05T02:29:58.830Z,91.04
2022-08-05T02:30:54.093Z,91.30
2022-08-05T02:31:49.315Z,91.09
2022-08-05T02:32:48.308Z,91.24
2022-08-05T02:33:48.404Z,91.19
2022-08-05T02:34:54.969Z,91.50
2022-08-05T02:35:56.217Z,91.09
2022-08-05T02:36:49.263Z,91.30
2022-08-05T02:37:54.154Z,91.09
2022-08-05T02:38:53.356Z,91.09
2022-08-05T02:39:51.494Z,91.50
2022-08-05T02:40:48.242Z,91.15
2022-08-05T02:42:00.940Z,91.25
2022-08-05T02:42:52.656Z,91.15
2022-08-05T02:44:06.615Z,91.05
2022-08-05T02:44:49.185Z,90.89
2022-08-05T02:45:52.164Z,90.95
2022-08-05T02:46:58.780Z,90.95
2022-08-05T02:48:07.476Z,91.09
2022-08-05T02:48:49.126Z,91.09
2022-08-05T02:49:48.118Z,90.89
2022-08-05T02:50:48.446Z,90.79
2022-08-05T02:52:02.944Z,90.95
2022-08-05T02:52:49.080Z,91.30
2022-08-05T02:53:48.066Z,91.19
2022-08-05T02:54:52.194Z,91.19
2022-08-05T02:55:54.168Z,91.30
2022-08-05T02:56:49.073Z,91.19
2022-08-05T02:58:11.605Z,91.70
2022-08-05T02:58:51.658Z,92.30
2022-08-05T02:59:50.614Z,91.90
2022-08-05T03:00:47.993Z,92.20
2022-08-05T03:01:48.032Z,90.99
2022-08-05T03:02:47.992Z,90.99
2022-08-05T03:04:02.907Z,90.99
2022-08-05T03:04:48.947Z,91.19
2022-08-05T03:06:54.000Z,91.30
2022-08-05T03:06:55.330Z,92.20
2022-08-05T03:08:06.660Z,92.10
2022-08-05T03:08:48.907Z,92.00
2022-08-05T03:09:51.653Z,92.20
2022-08-05T03:11:02.332Z,92.00
2022-08-05T03:11:57.170Z,92.20
2022-08-05T03:12:48.880Z,92.00
2022-08-05T03:13:51.581Z,91.80
2022-08-05T03:14:48.837Z,91.70
2022-08-05T03:15:47.833Z,91.70
2022-08-05T03:16:47.814Z,91.90
2022-08-05T03:17:47.814Z,91.80
2022-08-05T03:18:47.792Z,92.20
2022-08-05T03:19:47.790Z,92.00
2022-08-05T03:20:48.964Z,92.00
2022-08-05T03:21:48.705Z,91.80
2022-08-05T03:22:49.998Z,92.00
2022-08-05T03:23:47.762Z,92.00
2022-08-05T03:24:50.764Z,92.10
2022-08-05T03:26:30.164Z,91.19
2022-08-05T03:26:49.305Z,91.39
2022-08-05T03:27:59.276Z,91.54
2022-08-05T03:28:48.699Z,91.50
2022-08-05T03:30:08.445Z,92.25
2022-08-05T03:30:48.671Z,91.80
2022-08-05T03:31:56.759Z,91.94
2022-08-05T03:32:47.643Z,91.70
2022-08-05T03:33:52.717Z,91.85
2022-08-05T03:34:51.055Z,92.14
2022-08-05T03:35:47.618Z,91.24
2022-08-05T03:36:47.603Z,92.14
2022-08-05T03:37:47.619Z,92.05
2022-08-05T03:38:53.450Z,92.05
2022-08-05T03:39:59.433Z,92.05
2022-08-05T03:40:48.949Z,92.39
2022-08-05T03:41:47.557Z,92.14
2022-08-05T03:42:52.110Z,91.78
2022-08-05T03:44:08.461Z,91.78
2022-08-05T03:44:48.520Z,92.09
2022-08-05T03:45:58.289Z,92.05
2022-08-05T03:46:48.492Z,91.78
2022-08-05T03:47:47.482Z,92.14
2022-08-05T03:48:47.487Z,92.05
2022-08-05T03:49:51.566Z,91.49
2022-08-05T03:50:47.455Z,91.18
2022-08-05T03:52:38.562Z,91.08
2022-08-05T03:55:34.301Z,91.78
2022-08-05T03:55:50.442Z,92.29
2022-08-05T03:55:51.989Z,91.93
2022-08-05T03:56:05.949Z,92.79
2022-08-05T03:56:49.888Z,92.79
2022-08-05T03:57:47.615Z,92.29
2022-08-05T03:58:47.356Z,92.59
2022-08-05T03:59:54.928Z,92.19
2022-08-05T04:00:51.388Z,92.79
2022-08-05T04:01:47.421Z,92.79
2022-08-05T04:02:52.100Z,92.69
2022-08-05T04:04:09.781Z,92.79
2022-08-05T04:04:48.299Z,92.45
2022-08-05T04:05:47.293Z,92.75
2022-08-05T04:06:47.778Z,92.69
2022-08-05T04:07:57.629Z,91.78
2022-08-05T04:08:48.587Z,92.39
2022-08-05T04:09:53.100Z,92.79
2022-08-05T04:10:48.224Z,92.59
2022-08-05T04:11:50.707Z,92.39
2022-08-05T04:12:48.216Z,91.89
2022-08-05T04:13:50.611Z,92.35
2022-08-05T04:14:48.205Z,92.49
2022-08-05T04:16:03.073Z,92.29
2022-08-05T04:16:48.162Z,92.49
2022-08-05T04:17:57.181Z,92.49
2022-08-05T04:18:48.132Z,92.59
2022-08-05T04:19:54.295Z,91.89
2022-08-05T04:20:48.125Z,92.09
2022-08-05T04:22:09.916Z,91.58
2022-08-05T04:22:48.091Z,91.38
2022-08-05T04:24:00.267Z,91.28
2022-08-05T04:24:52.320Z,91.99
2022-08-05T04:25:57.957Z,91.58
2022-08-05T04:26:48.045Z,91.28
2022-08-05T04:27:58.115Z,90.88
2022-08-05T04:28:51.336Z,91.08
2022-08-05T04:29:47.021Z,91.28
2022-08-05T04:30:47.009Z,90.98
2022-08-05T04:31:48.272Z,90.88
2022-08-05T04:32:46.975Z,91.18
2022-08-05T04:34:17.482Z,91.08
2022-08-05T04:34:47.958Z,91.08
2022-08-05T04:36:09.492Z,91.08
2022-08-05T04:36:49.706Z,91.18
2022-08-05T04:38:00.870Z,90.98
2022-08-05T04:38:51.085Z,91.04
2022-08-05T04:39:46.981Z,91.04
2022-08-05T04:40:47.902Z,91.14
2022-08-05T04:41:48.285Z,91.14
2022-08-05T04:42:46.882Z,91.04
2022-08-05T04:43:52.141Z,91.04
2022-08-05T04:44:46.845Z,91.18
2022-08-05T04:45:48.310Z,90.88
2022-08-05T04:46:47.032Z,91.18
2022-08-05T04:47:47.274Z,91.18
2022-08-05T04:48:46.822Z,91.18
2022-08-05T04:50:02.801Z,91.28
2022-08-05T04:51:03.774Z,90.98
2022-08-05T04:51:47.769Z,90.98
2022-08-05T04:52:46.773Z,91.18
2022-08-05T04:53:46.749Z,91.28
2022-08-05T04:54:46.737Z,92.29
2022-08-05T04:56:00.098Z,92.09
2022-08-05T04:56:47.719Z,91.69
2022-08-05T04:57:47.989Z,91.28
2022-08-05T04:58:46.689Z,92.19
2022-08-05T04:59:47.947Z,92.29
2022-08-05T05:00:46.707Z,92.09
2022-08-05T05:02:35.012Z,92.19
2022-08-05T05:02:47.757Z,91.28
2022-08-05T05:03:46.662Z,91.28
2022-08-05T05:04:47.882Z,91.08
2022-08-05T05:06:39.153Z,90.88
2022-08-05T05:06:51.848Z,91.49
2022-08-05T05:07:56.039Z,91.28
2022-08-05T05:08:50.135Z,92.19
2022-08-05T05:09:46.593Z,91.38
2022-08-05T05:10:55.739Z,90.98
2022-08-05T05:11:55.431Z,90.17
2022-08-05T05:12:47.553Z,89.57
2022-08-05T05:13:46.565Z,90.07
2022-08-05T05:14:50.802Z,90.07
2022-08-05T05:15:57.107Z,90.78
2022-08-05T05:16:47.492Z,90.48
2022-08-05T05:17:55.738Z,90.37
2022-08-05T05:19:09.041Z,90.58
2022-08-05T05:19:47.636Z,90.78
2022-08-05T05:20:46.451Z,91.08
2022-08-05T05:21:46.559Z,91.54
2022-08-05T05:22:46.443Z,91.14
2022-08-05T05:24:03.686Z,90.94
2022-08-05T05:24:56.987Z,90.98
2022-08-05T05:25:47.840Z,91.18
2022-08-05T05:26:46.556Z,91.14
2022-08-05T05:27:53.761Z,91.04
2022-08-05T05:28:47.357Z,91.34
2022-08-05T05:30:05.015Z,91.24
2022-08-05T05:30:49.584Z,91.04
2022-08-05T05:31:46.682Z,91.24
2022-08-05T05:32:46.384Z,91.28
2022-08-05T05:33:59.294Z,91.28
2022-08-05T05:34:47.291Z,91.38
2022-08-05T05:35:46.287Z,91.69
2022-08-05T05:36:47.173Z,92.29
2022-08-05T05:37:59.857Z,92.09
2022-08-05T05:38:47.280Z,91.38
2022-08-05T05:39:46.321Z,91.08
2022-08-05T05:40:49.933Z,91.38
2022-08-05T05:41:54.527Z,91.78
2022-08-05T05:42:47.153Z,91.38
2022-08-05T05:43:58.563Z,91.58
2022-08-05T05:44:47.199Z,91.08
2022-08-05T05:45:48.157Z,91.18
2022-08-05T05:46:46.189Z,91.18
2022-08-05T05:48:07.007Z,91.38
2022-08-05T05:48:48.227Z,91.89
2022-08-05T05:49:46.144Z,91.89
2022-08-05T05:50:47.168Z,92.13
2022-08-05T05:51:50.038Z,92.13
2022-08-05T05:52:46.603Z,92.33
2022-08-05T05:53:57.522Z,92.03
2022-08-05T05:54:50.197Z,92.33
2022-08-05T05:55:52.428Z,92.54
2022-08-05T05:56:47.380Z,92.68
2022-08-05T05:57:52.146Z,92.78
2022-08-05T05:58:47.055Z,93.08
2022-08-05T05:59:46.019Z,93.29
2022-08-05T06:00:46.009Z,92.98
2022-08-05T06:01:57.169Z,93.08
2022-08-05T06:02:46.982Z,92.78
2022-08-05T06:04:00.815Z,93.18
2022-08-05T06:04:49.102Z,93.89
2022-08-05T06:05:45.967Z,93.74
2022-08-05T06:06:47.744Z,93.74
2022-08-05T06:08:01.486Z,93.34
2022-08-05T06:08:49.237Z,93.04
2022-08-05T06:10:00.124Z,93.29
2022-08-05T06:10:52.352Z,92.83
2022-08-05T06:12:01.191Z,93.79
2022-08-05T06:12:46.870Z,92.78
2022-08-05T06:13:54.249Z,92.38
2022-08-05T06:14:45.846Z,92.78
2022-08-05T06:16:30.748Z,92.68
2022-08-05T06:16:46.840Z,92.78
2022-08-05T06:17:52.652Z,93.38
2022-08-05T06:18:45.802Z,92.98
2022-08-05T06:19:45.825Z,92.68
2022-08-05T06:20:47.769Z,93.59
2022-08-05T06:21:49.702Z,93.38
2022-08-05T06:22:46.278Z,92.98
2022-08-05T06:23:45.750Z,93.49
2022-08-05T06:24:48.219Z,93.84
2022-08-05T06:26:12.181Z,93.02
2022-08-05T06:26:52.374Z,92.42
2022-08-05T06:28:11.369Z,92.93
2022-08-05T06:28:46.703Z,92.72
2022-08-05T06:29:53.379Z,92.82
2022-08-05T06:30:46.689Z,93.02
2022-08-05T06:31:53.520Z,93.13
2022-08-05T06:32:46.739Z,93.73
2022-08-05T06:34:06.817Z,94.24
2022-08-05T06:34:47.039Z,93.89
2022-08-05T06:36:07.958Z,94.04
2022-08-05T06:36:57.702Z,94.34
2022-08-05T06:37:58.038Z,94.44
2022-08-05T06:38:47.083Z,94.13
2022-08-05T06:39:45.707Z,93.93
2022-08-05T06:40:45.559Z,93.73
2022-08-05T06:41:45.561Z,94.09
2022-08-05T06:42:45.591Z,93.89
2022-08-05T06:43:58.457Z,94.09
2022-08-05T06:44:46.538Z,94.09
2022-08-05T06:46:06.944Z,93.79
2022-08-05T06:46:46.506Z,93.89
2022-08-05T06:48:36.175Z,94.19
2022-08-05T06:48:56.298Z,94.19
2022-08-05T06:50:01.222Z,93.69
2022-08-05T06:50:46.458Z,93.59
2022-08-05T06:51:45.450Z,93.49
2022-08-05T06:52:45.428Z,93.99
2022-08-05T06:53:53.639Z,93.89
2022-08-05T06:54:46.423Z,93.69
2022-08-05T06:55:46.394Z,93.89
2022-08-05T06:56:54.641Z,94.29
2022-08-05T06:58:03.446Z,94.19
2022-08-05T06:58:46.723Z,94.19
2022-08-05T06:59:48.511Z,94.09
2022-08-05T07:00:46.378Z,93.89
2022-08-05T07:01:46.165Z,93.69
2022-08-05T07:02:45.315Z,93.99
2022-08-05T07:03:45.309Z,93.79
2022-08-05T07:04:45.311Z,94.13
2022-08-05T07:05:46.348Z,94.04
2022-08-05T07:06:45.272Z,93.99
2022-08-05T07:07:45.391Z,93.99
2022-08-05T07:08:47.478Z,93.84
2022-08-05T07:09:46.257Z,94.09
2022-08-05T07:10:52.518Z,93.89
2022-08-05T07:11:49.579Z,93.73
2022-08-05T07:12:49.093Z,94.04
2022-08-05T07:13:59.491Z,93.73
2022-08-05T07:14:46.188Z,93.84
2022-08-05T07:16:01.623Z,93.79
2022-08-05T07:18:02.424Z,93.73
2022-08-05T07:18:08.486Z,93.79
2022-08-05T07:18:47.729Z,93.84
2022-08-05T07:20:31.444Z,93.73
2022-08-05T07:20:46.114Z,94.04
2022-08-05T07:21:59.845Z,94.04
2022-08-05T07:22:46.090Z,93.99
2022-08-05T07:23:50.040Z,93.99
2022-08-05T07:24:52.509Z,93.79
2022-08-05T07:25:56.298Z,93.89
2022-08-05T07:26:46.179Z,93.84
2022-08-05T07:27:58.527Z,93.73
2022-08-05T07:28:46.031Z,94.04
2022-08-05T07:30:22.172Z,93.73
2022-08-05T07:30:50.292Z,93.93
2022-08-05T07:31:55.107Z,93.84
2022-08-05T07:32:45.997Z,93.73
2022-08-05T07:33:44.991Z,94.04
2022-08-05T07:34:44.960Z,94.34
2022-08-05T07:36:04.527Z,94.74
2022-08-05T07:36:45.947Z,94.64
2022-08-05T07:37:47.327Z,94.89
2022-08-05T07:38:44.949Z,94.54
2022-08-05T07:40:04.324Z,94.64
2022-08-05T07:40:45.968Z,95.04
2022-08-05T07:42:13.251Z,94.89
2022-08-05T07:42:45.882Z,95.59
2022-08-05T07:43:44.891Z,95.90
2022-08-05T07:44:46.300Z,95.45
2022-08-05T07:45:57.565Z,95.90
2022-08-05T07:46:45.974Z,95.55
2022-08-05T07:47:44.828Z,95.14
2022-08-05T07:49:02.776Z,95.65
2022-08-05T07:49:54.550Z,95.95
2022-08-05T07:50:45.780Z,96.20
2022-08-05T07:51:53.154Z,95.39
2022-08-05T07:52:45.758Z,95.09
2022-08-05T07:53:49.914Z,95.39
2022-08-05T07:54:47.576Z,95.25
2022-08-05T07:56:05.616Z,95.14
2022-08-05T07:57:02.579Z,95.14
2022-08-05T07:57:55.253Z,95.45
2022-08-05T07:58:57.363Z,95.65
2022-08-05T07:59:46.813Z,96.01
2022-08-05T08:00:44.705Z,96.25
2022-08-05T08:01:52.139Z,95.61
2022-08-05T08:03:14.834Z,95.61
2022-08-05T08:03:45.692Z,95.90
2022-08-05T08:04:44.936Z,95.50
2022-08-05T08:05:49.518Z,95.10
2022-08-05T08:06:45.629Z,95.30
2022-08-05T08:07:59.745Z,94.49
2022-08-05T08:08:45.646Z,94.80
2022-08-05T08:09:44.587Z,94.59
2022-08-05T08:10:44.559Z,94.59
2022-08-05T08:11:47.458Z,94.64
2022-08-05T08:12:49.530Z,94.59
2022-08-05T08:13:49.483Z,94.90
2022-08-05T08:14:46.745Z,94.39
2022-08-05T08:16:35.676Z,94.49
2022-08-05T08:16:51.123Z,94.44
2022-08-05T08:17:49.734Z,94.94
2022-08-05T08:18:50.176Z,94.70
2022-08-05T08:20:22.214Z,95.10
2022-08-05T08:21:02.939Z,95.81
2022-08-05T08:21:45.436Z,95.40
2022-08-05T08:22:44.538Z,95.30
2022-08-05T08:24:02.442Z,95.56
2022-08-05T08:24:51.405Z,95.15
2022-08-05T08:26:00.108Z,95.26
2022-08-05T08:26:45.382Z,95.26
2022-08-05T08:27:47.365Z,96.16
2022-08-05T08:29:02.168Z,95.10
2022-08-05T08:30:05.066Z,95.26
2022-08-05T08:30:47.808Z,95.36
2022-08-05T08:31:44.325Z,95.36
2022-08-05T08:32:44.320Z,95.36
2022-08-05T08:33:44.306Z,95.76
2022-08-05T08:34:44.299Z,95.15
2022-08-05T08:35:53.929Z,95.96
2022-08-05T08:36:47.584Z,95.86
2022-08-05T08:37:45.300Z,95.86
2022-08-05T08:38:53.077Z,95.06
2022-08-05T08:39:49.695Z,95.15
2022-08-05T08:40:50.507Z,95.26
2022-08-05T08:41:50.764Z,95.46
2022-08-05T08:42:50.446Z,95.76
2022-08-05T08:45:19.497Z,96.16
2022-08-05T08:45:19.740Z,94.95
2022-08-05T08:45:45.201Z,96.06
2022-08-05T08:46:44.174Z,95.86
2022-08-05T08:48:05.879Z,95.26
2022-08-05T08:49:07.764Z,95.96
2022-08-05T08:50:14.162Z,95.15
2022-08-05T08:51:03.115Z,95.72
2022-08-05T08:52:03.671Z,94.40
2022-08-05T08:52:47.431Z,94.40
2022-08-05T08:53:45.453Z,94.60
2022-08-05T08:54:44.084Z,94.91
2022-08-05T08:56:03.479Z,94.40
2022-08-05T08:56:47.748Z,94.81
2022-08-05T08:57:58.021Z,94.71
2022-08-05T08:58:47.912Z,94.40
2022-08-05T08:59:47.247Z,94.76
2022-08-05T09:00:44.492Z,94.36
2022-08-05T09:01:44.151Z,94.36
2022-08-05T09:02:44.993Z,94.36
2022-08-05T09:03:45.254Z,94.26
2022-08-05T09:04:58.154Z,94.46
2022-08-05T09:06:09.071Z,94.36
2022-08-05T09:06:44.973Z,94.87
2022-08-05T09:07:57.588Z,95.42
2022-08-05T09:08:44.918Z,95.42
2022-08-05T09:09:43.907Z,95.62
2022-08-05T09:10:43.907Z,94.92
2022-08-05T09:11:52.997Z,95.32
2022-08-05T09:12:44.873Z,95.38
2022-08-05T09:14:09.323Z,95.18
2022-08-05T09:14:56.989Z,94.62
2022-08-05T09:15:44.918Z,94.92
2022-08-05T09:16:48.778Z,94.87
2022-08-05T09:17:49.350Z,94.42
2022-08-05T09:18:43.915Z,94.52
2022-08-05T09:20:01.507Z,94.12
2022-08-05T09:20:44.798Z,93.31
2022-08-05T09:22:25.078Z,93.66
2022-08-05T09:22:51.899Z,93.81
2022-08-05T09:23:44.757Z,93.31
2022-08-05T09:24:43.751Z,94.17
2022-08-05T09:26:01.308Z,93.81
2022-08-05T09:26:44.749Z,93.97
2022-08-05T09:28:03.799Z,94.17
2022-08-05T09:28:44.710Z,93.97
2022-08-05T09:29:47.650Z,93.66
2022-08-05T09:30:43.679Z,92.86
2022-08-05T09:32:57.492Z,92.36
2022-08-05T09:33:57.097Z,92.82
2022-08-05T09:34:57.074Z,93.73
2022-08-05T09:35:57.070Z,93.73
2022-08-05T09:36:59.718Z,93.48
2022-08-05T09:38:17.720Z,93.58
2022-08-05T09:38:58.170Z,93.63
2022-08-05T09:39:57.106Z,93.84
2022-08-05T09:40:57.015Z,93.74
2022-08-05T09:41:56.992Z,93.43
2022-08-05T09:42:56.988Z,92.93
2022-08-05T09:43:56.991Z,92.53
2022-08-05T09:45:03.311Z,93.03
2022-08-05T09:46:06.298Z,91.72
2022-08-05T09:46:58.177Z,90.42
2022-08-05T09:47:57.544Z,90.12
2022-08-05T09:49:07.182Z,90.62
2022-08-05T09:50:02.372Z,91.02
2022-08-05T09:50:57.902Z,91.13
2022-08-05T09:51:56.887Z,90.92
2022-08-05T09:52:56.889Z,90.42
2022-08-05T09:53:59.331Z,90.92
2022-08-05T09:54:56.871Z,90.12
2022-08-05T09:56:03.923Z,89.92
2022-08-05T09:56:57.921Z,90.62
2022-08-05T09:57:58.425Z,90.72
2022-08-05T09:58:56.834Z,90.12
2022-08-05T09:59:56.796Z,89.96
2022-08-05T10:00:56.820Z,90.26
2022-08-05T10:01:57.759Z,90.16
2022-08-05T10:02:58.278Z,90.86
2022-08-05T10:03:59.485Z,91.06
2022-08-05T10:04:56.760Z,90.86
2022-08-05T10:05:56.735Z,90.66
2022-08-05T10:06:59.009Z,90.06
2022-08-05T10:08:10.648Z,89.66
2022-08-05T10:08:57.698Z,89.96
2022-08-05T10:10:13.823Z,89.66
2022-08-05T10:10:57.683Z,89.31
2022-08-05T10:11:56.662Z,89.62
2022-08-05T10:12:56.655Z,90.02
2022-08-05T10:13:56.643Z,89.92
2022-08-05T10:14:56.644Z,90.12
2022-08-05T10:15:56.629Z,90.92
2022-08-05T10:16:56.611Z,90.98
2022-08-05T10:17:57.677Z,91.28
2022-08-05T10:18:56.601Z,90.98
2022-08-05T10:20:03.753Z,90.88
2022-08-05T10:20:57.567Z,90.37
2022-08-05T10:21:56.558Z,89.47
2022-08-05T10:22:56.560Z,88.77
2022-08-05T10:24:00.401Z,88.47
2022-08-05T10:24:56.539Z,88.97
2022-08-05T10:25:56.523Z,90.03
2022-08-05T10:27:00.234Z,89.43
2022-08-05T10:28:16.818Z,90.33
2022-08-05T10:28:57.486Z,89.39
2022-08-05T10:30:06.358Z,88.73
2022-08-05T10:32:47.342Z,88.63
2022-08-05T10:32:54.586Z,88.93
2022-08-05T10:33:01.338Z,88.63
2022-08-05T10:33:57.432Z,88.68
2022-08-05T10:34:56.433Z,88.39
2022-08-05T10:35:59.781Z,88.59
2022-08-05T10:36:56.400Z,88.89
2022-08-05T10:37:56.390Z,88.64
2022-08-05T10:38:56.439Z,88.99
2022-08-05T10:39:59.385Z,89.25
2022-08-05T10:40:58.068Z,89.65
2022-08-05T10:42:00.728Z,89.54
2022-08-05T10:42:56.334Z,90.15
2022-08-05T10:43:56.310Z,90.11
2022-08-05T10:44:56.302Z,89.81
2022-08-05T10:45:56.319Z,89.50
2022-08-05T10:46:57.290Z,88.40
2022-08-05T10:48:31.695Z,88.34
2022-08-05T10:49:02.764Z,87.50
2022-08-05T10:50:32.065Z,87.60
2022-08-05T10:50:57.260Z,87.40
2022-08-05T10:51:59.914Z,88.06
2022-08-05T10:52:58.774Z,87.41
2022-08-05T10:53:56.203Z,86.76
2022-08-05T10:54:57.294Z,86.76
2022-08-05T10:56:05.508Z,86.76
2022-08-05T10:56:57.381Z,86.32
2022-08-05T10:57:56.154Z,86.35
2022-08-05T10:58:56.163Z,86.76
2022-08-05T11:00:04.098Z,86.05
2022-08-05T11:01:03.104Z,86.76
2022-08-05T11:02:04.642Z,86.05
2022-08-05T11:02:57.174Z,85.55
2022-08-05T11:03:57.119Z,85.96
2022-08-05T11:04:56.104Z,86.16
2022-08-05T11:05:56.074Z,87.02
2022-08-05T11:06:57.486Z,86.16
2022-08-05T11:08:01.761Z,86.55
2022-08-05T11:08:57.040Z,86.85
2022-08-05T11:10:03.934Z,86.76
2022-08-05T11:11:00.929Z,86.05
2022-08-05T11:11:57.013Z,86.05
2022-08-05T11:12:56.047Z,86.96
2022-08-05T11:13:58.199Z,86.35
2022-08-05T11:15:11.937Z,86.76
2022-08-05T11:16:01.279Z,84.95
2022-08-05T11:17:00.168Z,84.69
2022-08-05T11:18:03.828Z,84.29
2022-08-05T11:18:56.928Z,83.69
2022-08-05T11:20:16.575Z,84.79
2022-08-05T11:20:56.911Z,85.49
2022-08-05T11:21:55.898Z,84.99
2022-08-05T11:22:59.174Z,84.19
2022-08-05T11:24:05.409Z,85.25
2022-08-05T11:26:03.477Z,84.55
2022-08-05T11:26:04.789Z,83.71
2022-08-05T11:26:56.837Z,82.91
2022-08-05T11:28:00.654Z,82.65
2022-08-05T11:28:56.825Z,83.11
2022-08-05T11:29:55.808Z,83.61
2022-08-05T11:30:55.797Z,82.81
2022-08-05T11:32:00.413Z,82.77
2022-08-05T11:32:55.776Z,83.03
2022-08-05T11:33:55.779Z,83.43
2022-08-05T11:34:55.750Z,84.05
2022-08-05T11:36:08.053Z,81.89
2022-08-05T11:36:56.797Z,77.99
2022-08-05T11:38:30.467Z,78.79
2022-08-05T11:38:57.590Z,78.83
2022-08-05T11:40:02.872Z,80.53
2022-08-05T11:41:00.803Z,81.03
2022-08-05T11:42:02.219Z,81.69
2022-08-05T11:42:56.662Z,80.93
2022-08-05T11:44:06.292Z,80.73
2022-08-05T11:44:56.638Z,80.67
2022-08-05T11:46:16.137Z,80.43
2022-08-05T11:47:09.379Z,79.67
2022-08-05T11:47:56.609Z,79.57
2022-08-05T11:48:55.606Z,81.23
2022-08-05T11:49:55.611Z,80.39
2022-08-05T11:50:55.578Z,78.83
2022-08-05T11:51:55.566Z,79.43
2022-08-05T11:52:57.880Z,78.59
2022-08-05T11:53:56.193Z,79.19
2022-08-05T11:54:55.792Z,77.83
2022-08-05T11:55:55.521Z,77.39
2022-08-05T11:56:55.509Z,77.43
2022-08-05T11:58:10.356Z,77.13
2022-08-05T11:58:56.519Z,75.63
2022-08-05T11:59:55.506Z,75.87
2022-08-05T12:00:55.476Z,76.56
2022-08-05T12:01:55.461Z,77.67
2022-08-05T12:02:56.608Z,78.30
2022-08-05T12:03:55.584Z,78.70
2022-08-05T12:04:59.238Z,80.00
2022-08-05T12:05:55.406Z,81.21
2022-08-05T12:06:55.401Z,80.71
2022-08-05T12:08:03.381Z,78.24
2022-08-05T12:08:56.377Z,78.24
2022-08-05T12:09:55.368Z,79.24
2022-08-05T12:10:55.363Z,79.44
2022-08-05T12:11:55.353Z,81.15
2022-08-05T12:12:58.318Z,80.85
2022-08-05T12:13:55.327Z,80.65
2022-08-05T12:14:55.306Z,79.74
2022-08-05T12:15:55.965Z,79.44
2022-08-05T12:16:55.286Z,78.80
2022-08-05T12:18:03.287Z,77.80
2022-08-05T12:18:56.266Z,78.27
2022-08-05T12:20:26.158Z,77.17
2022-08-05T12:20:56.266Z,77.73
2022-08-05T12:21:55.231Z,76.73
2022-08-05T12:22:55.241Z,75.29
2022-08-05T12:23:55.213Z,75.96
2022-08-05T12:24:55.198Z,75.22
2022-08-05T12:25:56.650Z,74.92
2022-08-05T12:26:55.218Z,73.92
2022-08-05T12:27:55.167Z,71.79
2022-08-05T12:28:55.158Z,69.39
2022-08-05T12:29:56.969Z,67.69
2022-08-05T12:30:55.143Z,65.20
2022-08-05T12:31:55.352Z,66.60
2022-08-05T12:32:56.277Z,66.27
2022-08-05T12:33:55.103Z,63.57
2022-08-05T12:34:55.119Z,65.83
2022-08-05T12:35:55.130Z,64.31
2022-08-05T12:36:55.064Z,60.62
2022-08-05T12:37:55.579Z,59.25
2022-08-05T12:38:55.066Z,60.97
2022-08-05T12:39:55.097Z,63.07
2022-08-05T12:40:56.037Z,58.98
2022-08-05T12:41:58.118Z,60.21
2022-08-05T12:42:54.997Z,60.93
2022-08-05T12:43:55.005Z,61.54
2022-08-05T12:44:54.975Z,59.23
2022-08-05T12:45:54.972Z,62.06
2022-08-05T12:46:54.968Z,60.96
2022-08-05T12:48:16.986Z,60.69
2022-08-05T12:48:55.930Z,59.39
2022-08-05T12:50:04.165Z,60.89
2022-08-05T12:50:55.923Z,60.29
2022-08-05T12:52:12.422Z,60.89
2022-08-05T12:52:55.886Z,63.39
2022-08-05T12:53:55.871Z,63.76